This is the latest recevied weather packets stored in our database for station/object KY4JDC. If no packets are shown the sender has not sent any weather packets the latest 10 day(s).
| Time | Temp. | Humidity | Pressure | Rain* | Wind** | Luminosity | Snow |
|---|---|---|---|---|---|---|---|
| 1787429836 | 30° C | 65% | 1017.4 hPa | 0 mm | - | 191 W/m² | - |
| 1787429536 | 30° C | 65% | 1017.5 hPa | 0 mm | - | 173 W/m² | - |
| 1787429232 | 30° C | 65% | 1017.7 hPa | 0 mm | - | 193 W/m² | - |
| 1787428928 | 30° C | 66% | 1017.6 hPa | 0 mm | - | 173 W/m² | - |
| 1787428623 | 30.56° C | 65% | 1017.7 hPa | 0 mm | - | 163 W/m² | - |
| 1787428318 | 30.56° C | 65% | 1017.7 hPa | 0 mm | - | 236 W/m² | - |
| 1787428013 | 30.56° C | 65% | 1017.8 hPa | 0 mm | - | 238 W/m² | - |
| 1787427713 | 30° C | 68% | 1017.7 hPa | 0 mm | - | 267 W/m² | - |
| 1787427409 | 30° C | 67% | 1017.5 hPa | 0 mm | - | 178 W/m² | - |
| 1787427106 | 30° C | 67% | 1017.8 hPa | 0 mm | - | 209 W/m² | - |
| 1787426801 | 30° C | 66% | 1017.9 hPa | 0 mm | - | 255 W/m² | - |
| 1787426496 | 30° C | 65% | 1017.9 hPa | 0 mm | - | 175 W/m² | - |
| 1787426193 | 30.56° C | 64% | 1018.1 hPa | 0 mm | - | 213 W/m² | - |
| 1787425889 | 30° C | 63% | 1018 hPa | 0 mm | - | 293 W/m² | - |
| 1787425585 | 30° C | 64% | 1018.2 hPa | 0 mm | - | 274 W/m² | - |
| 1787425281 | 30° C | 65% | 1018.3 hPa | 0 mm | - | 298 W/m² | - |
| 1787424980 | 30° C | 64% | 1018.2 hPa | 0 mm | - | 155 W/m² | - |
| 1787424680 | 30° C | 64% | 1018.1 hPa | 0 mm | - | 171 W/m² | - |
| 1787424376 | 30.56° C | 63% | 1017.9 hPa | 0 mm | - | 132 W/m² | - |
| 1787424075 | 30.56° C | 62% | 1018 hPa | 0 mm | - | 156 W/m² | - |
| 1787423771 | 31.11° C | 61% | 1017.9 hPa | 0 mm | - | 194 W/m² | - |
| 1787423468 | 31.67° C | 60% | 1018.1 hPa | 0 mm | - | 239 W/m² | - |
| 1787423164 | 31.11° C | 61% | 1017.8 hPa | 0 mm | - | 872 W/m² | - |
| 1787422859 | 31.67° C | 60% | 1018.1 hPa | 0 mm | - | 265 W/m² | - |
| 1787422556 | 31.11° C | 60% | 1018 hPa | 0 mm | - | 580 W/m² | - |
* Rain latest hour (hover to see other rain measurements)
** Current wind speed in m/s (hover to see current wind gust speed)